Time;durP1;ratioP1;P1;durP2;ratioP2;P2;SDS_P1;SDS_P2;PMS_P1;PMS_P2;Temp;Humidity;BMP_temperature;BMP_pressure;BME280_temperature;BME280_humidity;BME280_pressure;Samples;Min_cycle;Max_cycle;Signal;HPM_P1;HPM_P2
2022/07/29 00:01:52;;;;;;;1.30;1.20;;;24.70;44.40;;;;;;5062197;28;20189;-60
2022/07/29 00:04:18;;;;;;;1.40;1.30;;;24.60;44.30;;;;;;5058133;28;20560;-77
2022/07/29 00:06:44;;;;;;;1.50;1.40;;;24.60;44.30;;;;;;5067364;28;20425;-71
2022/07/29 00:09:10;;;;;;;1.47;1.20;;;24.60;44.30;;;;;;5070717;28;20169;-59
2022/07/29 00:11:37;;;;;;;1.50;1.20;;;24.60;44.20;;;;;;5078447;28;20480;-59
2022/07/29 00:14:03;;;;;;;1.40;1.30;;;24.70;44.40;;;;;;5062892;28;20246;-63
2022/07/29 00:16:28;;;;;;;1.53;1.43;;;24.60;44.20;;;;;;5067597;28;21161;-61
2022/07/29 00:18:54;;;;;;;1.50;1.40;;;24.60;44.30;;;;;;5063364;28;20196;-62
2022/07/29 00:21:21;;;;;;;1.30;1.20;;;24.60;44.30;;;;;;5060516;28;20224;-68
2022/07/29 00:23:46;;;;;;;1.50;1.40;;;24.60;44.30;;;;;;5067898;28;20428;-61
2022/07/29 00:26:12;;;;;;;1.43;1.33;;;24.60;44.30;;;;;;5060893;28;20185;-61
2022/07/29 00:28:38;;;;;;;1.30;1.20;;;24.60;44.30;;;;;;5065996;28;20191;-61
2022/07/29 00:31:03;;;;;;;1.40;1.30;;;24.60;44.30;;;;;;5066991;28;20220;-61
2022/07/29 00:33:29;;;;;;;1.47;1.37;;;24.60;44.30;;;;;;5060324;28;20433;-60
2022/07/29 00:35:56;;;;;;;1.23;1.13;;;24.60;44.30;;;;;;5061510;28;20189;-62
2022/07/29 00:38:23;;;;;;;1.30;1.20;;;24.60;44.30;;;;;;5071814;28;20181;-59
2022/07/29 00:40:52;;;;;;;1.20;1.10;;;24.60;44.20;;;;;;5069354;28;20463;-61
2022/07/29 00:43:19;;;;;;;1.37;1.27;;;24.60;44.30;;;;;;5065374;28;20430;-69
2022/07/29 00:45:44;;;;;;;1.27;1.17;;;24.60;44.30;;;;;;5069089;28;20459;-64
2022/07/29 00:48:10;;;;;;;1.50;1.40;;;24.60;44.30;;;;;;5064739;28;20914;-59
2022/07/29 00:50:39;;;;;;;1.40;1.30;;;24.60;44.20;;;;;;5067525;28;20288;-62
2022/07/29 00:53:08;;;;;;;1.33;1.23;;;24.60;44.30;;;;;;5068583;28;20757;-66
2022/07/29 00:55:35;;;;;;;1.50;1.40;;;24.60;44.20;;;;;;5067530;28;20440;-72
2022/07/29 00:58:02;;;;;;;1.20;1.10;;;24.70;44.30;;;;;;5068525;28;20419;-62
2022/07/29 01:00:31;;;;;;;1.40;1.30;;;24.70;44.40;;;;;;5059565;28;20426;-59
2022/07/29 01:02:58;;;;;;;1.40;1.30;;;24.60;44.20;;;;;;5059576;28;20437;-66
2022/07/29 01:05:26;;;;;;;1.30;1.20;;;24.60;44.20;;;;;;5058791;28;20560;-66
2022/07/29 01:07:55;;;;;;;1.50;1.40;;;24.60;44.20;;;;;;5058586;28;21246;-64
2022/07/29 01:10:23;;;;;;;1.40;1.30;;;24.60;44.20;;;;;;5074204;28;20847;-62
2022/07/29 01:12:51;;;;;;;1.40;1.30;;;24.60;44.30;;;;;;5064710;28;20882;-60
2022/07/29 01:15:16;;;;;;;1.27;1.20;;;24.60;44.30;;;;;;5063459;28;20438;-68
2022/07/29 01:18:04;;;;;;;1.33;1.23;;;24.60;44.30;;;;;;5065179;28;20431;-60
2022/07/29 01:20:51;;;;;;;1.37;1.27;;;24.60;44.20;;;;;;5060106;28;20259;-63
2022/07/29 01:23:38;;;;;;;1.40;1.30;;;24.60;44.30;;;;;;5063165;28;20430;-65
2022/07/29 01:26:42;;;;;;;1.10;1.10;;;24.60;44.30;;;;;;5071866;28;20635;-59
2022/07/29 01:29:11;;;;;;;1.60;1.50;;;24.60;44.20;;;;;;5061976;28;20427;-60
2022/07/29 01:31:55;;;;;;;1.20;1.10;;;24.60;44.30;;;;;;5062022;28;20565;-74
2022/07/29 01:34:54;;;;;;;1.33;1.23;;;24.60;44.30;;;;;;5066353;28;20477;-63
2022/07/29 01:37:22;;;;;;;1.47;1.37;;;24.60;44.30;;;;;;5063940;28;20935;-59
2022/07/29 01:39:51;;;;;;;1.20;1.10;;;24.60;44.30;;;;;;5071484;28;20422;-59
2022/07/29 01:42:33;;;;;;;1.40;1.30;;;24.60;44.20;;;;;;5061617;28;21279;-63
2022/07/29 01:45:11;;;;;;;1.40;1.30;;;24.60;44.20;;;;;;5064004;28;20474;-59
2022/07/29 01:47:46;;;;;;;1.60;1.50;;;24.60;44.30;;;;;;5065451;28;21478;-73
2022/07/29 01:50:16;;;;;;;1.30;1.20;;;24.60;44.20;;;;;;5065339;28;20429;-74
2022/07/29 01:52:55;;;;;;;1.47;1.37;;;24.60;44.30;;;;;;5066883;28;20569;-61
2022/07/29 01:55:24;;;;;;;1.40;1.30;;;24.60;44.20;;;;;;5070831;28;20438;-62
2022/07/29 01:57:51;;;;;;;1.30;1.20;;;24.60;44.20;;;;;;5062378;28;22821;-73
2022/07/29 02:00:18;;;;;;;1.23;1.13;;;24.60;44.20;;;;;;5063426;28;20454;-72
2022/07/29 02:02:47;;;;;;;1.33;1.23;;;24.60;44.20;;;;;;5061271;28;20436;-64
2022/07/29 02:05:19;;;;;;;1.20;1.10;;;24.60;44.20;;;;;;5061232;28;20429;-76
2022/07/29 02:07:47;;;;;;;1.30;1.20;;;24.60;44.20;;;;;;5069645;28;20606;-61
2022/07/29 02:10:14;;;;;;;1.40;1.30;;;24.60;44.20;;;;;;5070207;28;20423;-66
2022/07/29 02:12:42;;;;;;;1.50;1.40;;;24.60;44.20;;;;;;5065955;28;20501;-72
2022/07/29 02:15:09;;;;;;;1.40;1.30;;;24.60;44.20;;;;;;5060421;28;20446;-64
2022/07/29 02:17:48;;;;;;;1.40;1.30;;;24.60;44.30;;;;;;5063801;28;20966;-65
2022/07/29 02:20:14;;;;;;;1.33;1.23;;;24.60;44.20;;;;;;5059495;28;20468;-75
2022/07/29 02:22:41;;;;;;;1.30;1.20;;;24.60;44.20;;;;;;5059168;28;20442;-72
2022/07/29 02:25:09;;;;;;;1.50;1.40;;;24.60;44.20;;;;;;5058502;28;20434;-63
2022/07/29 02:27:37;;;;;;;1.40;1.30;;;24.60;44.20;;;;;;5072693;28;20433;-59
2022/07/29 02:30:05;;;;;;;1.40;1.30;;;24.60;44.20;;;;;;5060814;28;20425;-60
2022/07/29 02:32:34;;;;;;;1.40;1.30;;;24.60;44.20;;;;;;5060896;28;22138;-77
2022/07/29 02:35:01;;;;;;;1.30;1.20;;;24.60;44.20;;;;;;5062962;28;20433;-71
2022/07/29 02:37:29;;;;;;;1.43;1.33;;;24.60;45.20;;;;;;5058857;28;20433;-64
2022/07/29 02:39:57;;;;;;;1.50;1.40;;;24.60;44.30;;;;;;5061335;28;20454;-59
2022/07/29 02:42:26;;;;;;;1.30;1.20;;;24.60;44.30;;;;;;5067825;28;20421;-66
2022/07/29 02:44:52;;;;;;;1.50;1.40;;;24.60;44.20;;;;;;5064647;28;20437;-70
2022/07/29 02:47:27;;;;;;;1.23;1.13;;;24.60;44.40;;;;;;5061461;28;20456;-62
2022/07/29 02:49:56;;;;;;;1.50;1.40;;;24.60;44.20;;;;;;5058829;28;20429;-76
2022/07/29 02:52:43;;;;;;;1.43;1.33;;;24.60;44.20;;;;;;5062869;28;20528;-63
2022/07/29 02:55:09;;;;;;;1.37;1.27;;;24.60;44.20;;;;;;5060448;28;20928;-66
2022/07/29 02:57:57;;;;;;;1.40;1.30;;;24.60;44.20;;;;;;5071056;28;20459;-67
2022/07/29 03:00:27;;;;;;;1.20;1.10;;;24.60;44.20;;;;;;5059252;28;20181;-66
2022/07/29 03:02:58;;;;;;;1.30;1.20;;;24.60;44.30;;;;;;5068180;28;21113;-75
2022/07/29 03:05:24;;;;;;;1.40;1.30;;;24.50;44.20;;;;;;5064855;28;20434;-62
2022/07/29 03:07:56;;;;;;;1.43;1.33;;;24.60;44.20;;;;;;5065129;28;20441;-65
2022/07/29 03:10:23;;;;;;;1.30;1.20;;;24.60;44.30;;;;;;5064505;28;20448;-65
2022/07/29 03:12:49;;;;;;;1.30;1.20;;;24.50;44.20;;;;;;5070231;28;20465;-68
2022/07/29 03:15:15;;;;;;;1.20;1.10;;;24.60;44.20;;;;;;5058772;28;20430;-65
2022/07/29 03:17:41;;;;;;;1.60;1.50;;;24.60;44.20;;;;;;5061109;28;20200;-63
2022/07/29 03:20:08;;;;;;;1.37;1.27;;;24.60;44.20;;;;;;5062258;28;20784;-62
2022/07/29 03:22:48;;;;;;;1.50;1.40;;;24.60;44.20;;;;;;5060659;28;20534;-69
2022/07/29 03:25:15;;;;;;;1.40;1.30;;;24.60;44.20;;;;;;5063545;28;20423;-78
2022/07/29 03:27:42;;;;;;;1.40;1.30;;;24.60;44.20;;;;;;5065328;28;20447;-66
2022/07/29 03:30:10;;;;;;;1.30;1.20;;;24.60;44.20;;;;;;5060193;28;20488;-61
2022/07/29 03:32:36;;;;;;;1.50;1.40;;;24.60;44.20;;;;;;5056932;28;20470;-65
2022/07/29 03:35:02;;;;;;;1.57;1.47;;;24.60;44.10;;;;;;5064402;28;20690;-68
2022/07/29 03:37:30;;;;;;;1.40;1.30;;;24.50;44.10;;;;;;5064795;28;20177;-77
2022/07/29 03:39:58;;;;;;;1.40;1.30;;;24.50;44.20;;;;;;5059997;28;20451;-64
2022/07/29 03:42:30;;;;;;;1.30;1.20;;;24.60;44.20;;;;;;5067128;28;20435;-74
2022/07/29 03:44:58;;;;;;;1.30;1.20;;;24.60;44.10;;;;;;5060683;28;20923;-73
2022/07/29 03:47:27;;;;;;;1.50;1.40;;;24.50;44.10;;;;;;5060014;28;20438;-74
2022/07/29 03:49:56;;;;;;;1.57;1.47;;;24.50;44.10;;;;;;5061577;28;20426;-67
2022/07/29 03:52:22;;;;;;;1.40;1.20;;;24.50;44.10;;;;;;5064364;28;20606;-59
2022/07/29 03:54:48;;;;;;;1.50;1.30;;;24.60;44.10;;;;;;5059820;28;20434;-76
2022/07/29 03:57:15;;;;;;;1.40;1.30;;;24.60;44.10;;;;;;5062668;28;21776;-64
2022/07/29 03:59:42;;;;;;;1.50;1.40;;;24.50;44.10;;;;;;5066943;28;20425;-66
2022/07/29 04:02:10;;;;;;;1.40;1.30;;;24.50;44.10;;;;;;5071395;28;20528;-59
2022/07/29 04:04:37;;;;;;;1.30;1.20;;;24.50;44.80;;;;;;5063231;28;20442;-68
2022/07/29 04:07:03;;;;;;;1.20;1.10;;;24.50;44.00;;;;;;5065914;28;20459;-60
2022/07/29 04:09:29;;;;;;;1.50;1.40;;;24.50;44.10;;;;;;5061916;28;20426;-59
2022/07/29 04:11:55;;;;;;;1.30;1.20;;;24.50;44.10;;;;;;5065799;28;20532;-65
2022/07/29 04:14:20;;;;;;;1.30;1.20;;;24.50;44.10;;;;;;5066759;28;20988;-64
2022/07/29 04:16:47;;;;;;;1.30;1.20;;;24.50;44.80;;;;;;5061620;28;20326;-66
2022/07/29 04:19:13;;;;;;;1.50;1.40;;;24.50;44.00;;;;;;5062012;28;20181;-65
2022/07/29 04:21:40;;;;;;;1.73;1.30;;;24.50;44.00;;;;;;5064609;28;20549;-66
2022/07/29 04:24:07;;;;;;;1.40;1.30;;;24.50;44.10;;;;;;5060159;28;20180;-62
2022/07/29 04:26:33;;;;;;;1.20;1.10;;;24.50;44.00;;;;;;5060562;28;20526;-63
2022/07/29 04:28:59;;;;;;;1.30;1.20;;;24.50;44.10;;;;;;5066066;28;20984;-65
2022/07/29 04:31:25;;;;;;;1.30;1.20;;;24.50;44.00;;;;;;5059138;28;20466;-74
2022/07/29 04:33:50;;;;;;;1.23;1.13;;;24.50;44.00;;;;;;5066366;28;20631;-60
2022/07/29 04:36:16;;;;;;;1.30;1.20;;;24.50;44.10;;;;;;5063644;28;20268;-69
2022/07/29 04:38:42;;;;;;;1.43;1.10;;;24.50;44.10;;;;;;5059025;28;20186;-60
2022/07/29 04:41:08;;;;;;;1.30;1.20;;;24.50;44.00;;;;;;5058040;28;20434;-70
2022/07/29 04:43:35;;;;;;;1.70;1.50;;;24.50;44.00;;;;;;5061697;28;20192;-69
2022/07/29 04:46:01;;;;;;;1.60;1.20;;;24.50;44.00;;;;;;5063637;28;20950;-71
2022/07/29 04:48:28;;;;;;;1.33;1.23;;;24.50;44.00;;;;;;5063075;28;20556;-60
2022/07/29 04:50:53;;;;;;;1.40;1.30;;;24.50;44.00;;;;;;5055731;28;21408;-58
2022/07/29 04:53:19;;;;;;;1.50;1.20;;;24.50;44.00;;;;;;5060779;28;20968;-64
2022/07/29 04:55:45;;;;;;;1.30;1.20;;;24.50;44.00;;;;;;5057659;28;20185;-69
2022/07/29 04:58:11;;;;;;;1.27;1.17;;;24.50;44.00;;;;;;5057578;28;20188;-64
2022/07/29 05:00:37;;;;;;;1.87;1.30;;;24.50;44.00;;;;;;5075671;28;21722;-60
2022/07/29 05:03:03;;;;;;;1.30;1.20;;;24.50;44.00;;;;;;5067975;28;21011;-72
2022/07/29 05:05:29;;;;;;;1.97;1.20;;;24.50;44.00;;;;;;5064994;28;20432;-76
2022/07/29 05:07:55;;;;;;;1.40;1.30;;;24.50;44.00;;;;;;5062718;28;20442;-67
2022/07/29 05:10:20;;;;;;;1.50;1.40;;;24.50;44.00;;;;;;5066066;28;20259;-64
2022/07/29 05:12:46;;;;;;;1.37;1.27;;;24.50;44.10;;;;;;5071750;28;20238;-65
2022/07/29 05:15:12;;;;;;;1.30;1.20;;;24.50;44.00;;;;;;5072150;28;20188;-63
2022/07/29 05:17:38;;;;;;;1.20;1.10;;;24.50;44.00;;;;;;5067187;28;20440;-69
2022/07/29 05:20:05;;;;;;;1.47;1.37;;;24.50;44.00;;;;;;5064390;28;20469;-58
2022/07/29 05:22:31;;;;;;;1.30;1.20;;;24.50;44.10;;;;;;5064111;28;20219;-70
2022/07/29 05:24:57;;;;;;;1.30;1.20;;;24.50;44.00;;;;;;5066629;28;20421;-68
2022/07/29 05:27:22;;;;;;;1.40;1.30;;;24.50;44.00;;;;;;5061275;28;20671;-65
2022/07/29 05:29:48;;;;;;;1.30;1.20;;;24.50;44.00;;;;;;5063327;28;20239;-61
2022/07/29 05:32:13;;;;;;;1.50;1.40;;;24.50;44.00;;;;;;5068470;28;20217;-62
2022/07/29 05:34:40;;;;;;;1.30;1.20;;;24.50;44.00;;;;;;5063084;28;20200;-65
2022/07/29 05:37:05;;;;;;;1.40;1.30;;;24.50;44.10;;;;;;5061454;28;20389;-62
2022/07/29 05:39:31;;;;;;;1.33;1.23;;;24.50;44.10;;;;;;5066622;28;21220;-61
2022/07/29 05:41:56;;;;;;;1.50;1.40;;;24.50;44.10;;;;;;5061522;28;20620;-75
2022/07/29 05:44:22;;;;;;;1.40;1.30;;;24.50;44.10;;;;;;5067961;28;20285;-75
2022/07/29 05:46:48;;;;;;;1.50;1.40;;;24.50;44.10;;;;;;5071464;28;20189;-61
2022/07/29 05:49:14;;;;;;;1.90;1.60;;;24.50;44.00;;;;;;5066823;28;20975;-67
2022/07/29 05:51:40;;;;;;;1.37;1.27;;;24.50;44.10;;;;;;5064123;28;20242;-62
2022/07/29 05:54:06;;;;;;;1.30;1.20;;;24.50;44.10;;;;;;5063344;28;20185;-61
2022/07/29 05:56:31;;;;;;;1.20;1.10;;;24.50;44.10;;;;;;5066515;28;20534;-65
2022/07/29 05:58:58;;;;;;;1.63;1.40;;;24.50;44.10;;;;;;5061306;28;20951;-65
2022/07/29 06:01:24;;;;;;;1.30;1.20;;;24.50;44.10;;;;;;5068438;28;20200;-58
2022/07/29 06:03:50;;;;;;;1.40;1.30;;;24.50;44.10;;;;;;5065039;28;20432;-60
2022/07/29 06:06:15;;;;;;;1.30;1.20;;;24.50;44.10;;;;;;5059701;28;20426;-60
2022/07/29 06:08:41;;;;;;;1.47;1.30;;;24.50;44.10;;;;;;5060348;28;20192;-72
2022/07/29 06:11:08;;;;;;;1.30;1.20;;;24.50;44.10;;;;;;5060763;28;20684;-60
2022/07/29 06:13:34;;;;;;;1.30;1.20;;;24.50;44.10;;;;;;5065521;28;20205;-76
2022/07/29 06:16:00;;;;;;;1.60;1.50;;;24.50;44.10;;;;;;5066435;28;20667;-59
2022/07/29 06:18:25;;;;;;;1.30;1.20;;;24.50;44.10;;;;;;5068511;28;20189;-61
2022/07/29 06:20:53;;;;;;;1.40;1.30;;;24.50;44.10;;;;;;5065903;28;20963;-63
2022/07/29 06:23:20;;;;;;;2.03;1.40;;;24.50;44.10;;;;;;5066765;28;20177;-63
2022/07/29 06:25:46;;;;;;;1.30;1.20;;;24.50;44.10;;;;;;5062928;28;23229;-65
2022/07/29 06:28:12;;;;;;;1.50;1.40;;;24.50;44.10;;;;;;5063161;28;20936;-60
2022/07/29 06:30:39;;;;;;;1.60;1.50;;;24.50;44.10;;;;;;5065892;28;20238;-65
2022/07/29 06:33:05;;;;;;;1.67;1.37;;;24.50;44.90;;;;;;5071001;28;20204;-59
2022/07/29 06:35:33;;;;;;;1.33;1.23;;;24.50;44.20;;;;;;5063031;28;20508;-61
2022/07/29 06:37:59;;;;;;;1.50;1.40;;;24.50;44.20;;;;;;5064444;28;20533;-65
2022/07/29 06:43:09;;;;;;;1.40;1.30;;;24.50;44.10;;;;;;5070065;28;20199;-67
2022/07/29 06:45:35;;;;;;;1.80;1.70;;;24.50;44.20;;;;;;5065708;28;20483;-60
2022/07/29 06:48:00;;;;;;;1.43;1.33;;;24.50;44.90;;;;;;5069746;28;20504;-58
2022/07/29 06:50:26;;;;;;;1.50;1.40;;;24.50;44.20;;;;;;5056106;28;20185;-65
2022/07/29 06:52:52;;;;;;;1.40;1.30;;;24.50;44.20;;;;;;5060393;28;20635;-61
2022/07/29 06:55:19;;;;;;;1.70;1.60;;;24.50;44.20;;;;;;5064552;28;20611;-70
2022/07/29 06:57:45;;;;;;;1.33;1.23;;;24.50;44.20;;;;;;5060426;28;20185;-66
2022/07/29 07:00:12;;;;;;;1.47;1.37;;;24.50;44.20;;;;;;5063765;28;20426;-58
2022/07/29 07:02:38;;;;;;;1.73;1.50;;;24.50;44.20;;;;;;5070275;28;20860;-63
2022/07/29 07:05:05;;;;;;;1.43;1.33;;;24.50;44.20;;;;;;5067817;28;20444;-61
2022/07/29 07:07:30;;;;;;;1.30;1.20;;;24.50;44.20;;;;;;5059741;28;20264;-59
2022/07/29 07:09:57;;;;;;;1.50;1.40;;;24.50;44.20;;;;;;5060654;28;20433;-74
2022/07/29 07:12:22;;;;;;;1.50;1.40;;;24.50;44.20;;;;;;5058808;28;20209;-62
2022/07/29 07:14:48;;;;;;;1.53;1.43;;;24.50;44.20;;;;;;5057969;28;21287;-71
2022/07/29 07:17:13;;;;;;;1.53;1.43;;;24.50;44.20;;;;;;5065731;28;20223;-62
2022/07/29 07:19:39;;;;;;;1.50;1.40;;;24.50;44.20;;;;;;5069016;28;20180;-61
2022/07/29 07:22:05;;;;;;;1.70;1.60;;;24.50;44.20;;;;;;5060948;28;20532;-60
2022/07/29 07:24:31;;;;;;;1.83;1.50;;;24.50;44.20;;;;;;5065194;28;20203;-61
2022/07/29 07:26:57;;;;;;;1.43;1.33;;;24.50;44.10;;;;;;5068256;28;20190;-75
2022/07/29 07:29:23;;;;;;;1.80;1.70;;;24.50;44.20;;;;;;5062461;28;20532;-68
2022/07/29 07:31:49;;;;;;;1.40;1.30;;;24.50;44.10;;;;;;5057711;28;20205;-76
2022/07/29 07:34:15;;;;;;;1.67;1.57;;;24.50;44.20;;;;;;5061356;28;20425;-66
2022/07/29 07:36:41;;;;;;;1.47;1.37;;;24.50;44.20;;;;;;5067413;28;20493;-77
2022/07/29 07:39:07;;;;;;;1.40;1.30;;;24.50;45.00;;;;;;5064002;28;20512;-65
2022/07/29 07:41:33;;;;;;;1.43;1.33;;;24.50;44.20;;;;;;5060264;28;20185;-75
2022/07/29 07:43:58;;;;;;;1.60;1.50;;;24.50;44.20;;;;;;5066453;28;20234;-58
2022/07/29 07:46:24;;;;;;;1.40;1.30;;;24.50;44.20;;;;;;5059567;28;20173;-60
2022/07/29 07:48:51;;;;;;;1.73;1.50;;;24.50;44.20;;;;;;5059603;28;20186;-75
2022/07/29 07:51:17;;;;;;;1.50;1.40;;;24.50;44.20;;;;;;5066242;28;20220;-64
2022/07/29 07:53:44;;;;;;;1.70;1.60;;;24.50;44.20;;;;;;5058477;28;20451;-72
2022/07/29 07:56:10;;;;;;;1.57;1.40;;;24.50;44.20;;;;;;5060534;28;20847;-66
2022/07/29 07:58:36;;;;;;;1.97;1.87;;;24.50;44.20;;;;;;5066970;28;21298;-59
2022/07/29 08:01:01;;;;;;;1.93;1.73;;;24.50;44.20;;;;;;5064687;28;20217;-59
2022/07/29 08:03:27;;;;;;;1.87;1.33;;;24.50;44.20;;;;;;5062838;28;20543;-71
2022/07/29 08:05:54;;;;;;;1.50;1.40;;;24.50;44.20;;;;;;5067529;28;20200;-60
2022/07/29 08:08:19;;;;;;;1.30;1.20;;;24.50;44.20;;;;;;5060204;28;20873;-63
2022/07/29 08:10:58;;;;;;;1.60;1.50;;;24.50;44.10;;;;;;5062026;28;21450;-66
2022/07/29 08:13:27;;;;;;;2.53;1.60;;;24.50;44.00;;;;;;5061040;28;20267;-59
2022/07/29 08:16:11;;;;;;;3.20;1.50;;;24.50;43.90;;;;;;5059345;28;20438;-65
2022/07/29 08:18:37;;;;;;;1.80;1.70;;;24.50;43.90;;;;;;5065202;28;20468;-60
2022/07/29 08:21:03;;;;;;;1.97;1.80;;;24.50;43.80;;;;;;5070288;28;20701;-58
2022/07/29 08:23:38;;;;;;;1.93;1.83;;;24.50;43.70;;;;;;5060863;28;22615;-62
2022/07/29 08:26:10;;;;;;;1.77;1.63;;;24.50;43.60;;;;;;5066472;28;20438;-60
2022/07/29 08:28:37;;;;;;;1.50;1.40;;;24.50;43.50;;;;;;5064472;28;20479;-59
2022/07/29 08:31:03;;;;;;;1.90;1.80;;;24.50;43.50;;;;;;5061189;28;20461;-74
2022/07/29 08:33:28;;;;;;;2.10;1.90;;;24.50;43.40;;;;;;5064845;28;20724;-60
2022/07/29 08:35:56;;;;;;;1.73;1.57;;;24.50;43.40;;;;;;5070889;28;20184;-65
2022/07/29 08:38:21;;;;;;;2.03;1.73;;;24.50;43.30;;;;;;5073379;28;20989;-66
2022/07/29 08:40:47;;;;;;;1.70;1.60;;;24.50;43.20;;;;;;5071100;28;20483;-77
2022/07/29 08:43:13;;;;;;;2.50;1.53;;;24.50;43.30;;;;;;5068814;28;20265;-59
2022/07/29 08:45:46;;;;;;;1.60;1.50;;;24.50;43.20;;;;;;5062521;28;20189;-74
2022/07/29 08:48:13;;;;;;;1.67;1.57;;;24.50;43.20;;;;;;5064586;28;20180;-64
2022/07/29 08:50:40;;;;;;;1.60;1.43;;;24.50;43.20;;;;;;5075961;28;20437;-72
2022/07/29 08:53:11;;;;;;;1.80;1.70;;;24.50;43.20;;;;;;5066621;28;20445;-65
2022/07/29 08:55:40;;;;;;;1.50;1.40;;;24.50;43.20;;;;;;5064282;28;20870;-75
2022/07/29 08:58:06;;;;;;;1.60;1.50;;;24.50;43.20;;;;;;5068189;28;20460;-64
2022/07/29 09:00:35;;;;;;;1.93;1.83;;;24.50;43.20;;;;;;5065530;28;20518;-65
2022/07/29 09:03:01;;;;;;;1.53;1.43;;;24.50;43.10;;;;;;5068650;28;20979;-66
2022/07/29 09:05:28;;;;;;;1.67;1.57;;;24.50;43.20;;;;;;5066684;28;20425;-63
2022/07/29 09:07:54;;;;;;;1.80;1.60;;;24.50;43.20;;;;;;5073400;28;20434;-59
2022/07/29 09:10:20;;;;;;;2.03;1.77;;;24.50;43.10;;;;;;5067924;28;20530;-60
2022/07/29 09:12:46;;;;;;;1.87;1.77;;;24.50;43.20;;;;;;5068515;28;20460;-61
2022/07/29 09:15:11;;;;;;;1.63;1.53;;;24.50;43.10;;;;;;5066598;28;20241;-73
2022/07/29 09:17:46;;;;;;;1.80;1.70;;;24.50;43.20;;;;;;5068233;28;20261;-59
2022/07/29 09:20:17;;;;;;;1.83;1.40;;;24.50;43.20;;;;;;5066062;28;20228;-74
2022/07/29 09:22:43;;;;;;;1.90;1.70;;;24.50;43.20;;;;;;5071103;28;20762;-66
2022/07/29 09:25:12;;;;;;;2.00;1.63;;;24.50;43.10;;;;;;5066483;28;20436;-72
2022/07/29 09:27:38;;;;;;;1.90;1.80;;;24.50;43.20;;;;;;5067594;28;20436;-63
2022/07/29 09:30:11;;;;;;;1.70;1.60;;;24.50;43.20;;;;;;5067804;28;20437;-61
2022/07/29 09:33:01;;;;;;;2.83;1.70;;;24.50;43.20;;;;;;5068243;28;20295;-60
2022/07/29 09:35:28;;;;;;;1.60;1.50;;;24.50;43.30;;;;;;5070026;28;20445;-77
2022/07/29 09:37:53;;;;;;;2.80;1.90;;;24.50;43.40;;;;;;5072147;28;20440;-63
2022/07/29 09:40:24;;;;;;;1.87;1.77;;;24.50;43.40;;;;;;5069932;28;20441;-67
2022/07/29 09:42:51;;;;;;;1.67;1.57;;;24.50;43.40;;;;;;5069616;28;20223;-59
2022/07/29 09:45:28;;;;;;;1.80;1.70;;;24.50;43.50;;;;;;5070063;28;20428;-62
2022/07/29 09:47:58;;;;;;;2.20;1.70;;;24.50;43.50;;;;;;5062024;28;20468;-75
2022/07/29 09:50:35;;;;;;;1.60;1.50;;;24.50;43.60;;;;;;5071241;28;21031;-64
2022/07/29 09:53:01;;;;;;;1.60;1.50;;;24.50;43.60;;;;;;5072921;28;20546;-75
2022/07/29 09:55:27;;;;;;;1.60;1.50;;;24.50;43.60;;;;;;5066254;28;20429;-60
2022/07/29 09:57:53;;;;;;;1.67;1.57;;;24.50;43.60;;;;;;5069349;28;20181;-74
2022/07/29 10:00:22;;;;;;;1.67;1.57;;;24.50;43.60;;;;;;5062998;28;20511;-75
2022/07/29 10:02:48;;;;;;;1.87;1.77;;;24.50;43.70;;;;;;5064357;28;20651;-67
2022/07/29 10:05:19;;;;;;;1.60;1.50;;;24.50;43.70;;;;;;5065678;28;20434;-73
2022/07/29 10:07:53;;;;;;;1.50;1.40;;;24.50;43.70;;;;;;5064645;28;20173;-59
2022/07/29 10:10:21;;;;;;;2.53;1.60;;;24.50;43.70;;;;;;5061587;28;20438;-65
2022/07/29 10:12:54;;;;;;;1.60;1.50;;;24.50;43.70;;;;;;5063989;28;20468;-62
2022/07/29 10:15:22;;;;;;;1.70;1.50;;;24.50;43.60;;;;;;5065555;28;20441;-61
2022/07/29 10:17:48;;;;;;;1.80;1.70;;;24.50;43.70;;;;;;5064473;28;20443;-61
2022/07/29 10:20:15;;;;;;;1.80;1.70;;;24.50;43.70;;;;;;5064742;28;20478;-65
2022/07/29 10:22:41;;;;;;;2.47;1.80;;;24.50;44.50;;;;;;5067518;28;20936;-61
2022/07/29 10:25:08;;;;;;;1.70;1.60;;;24.50;43.70;;;;;;5068110;28;20842;-59
2022/07/29 10:27:35;;;;;;;1.50;1.40;;;24.50;43.80;;;;;;5062891;28;22361;-71
2022/07/29 10:30:01;;;;;;;1.97;1.87;;;24.50;43.70;;;;;;5064963;28;20488;-76
2022/07/29 10:32:40;;;;;;;1.70;1.60;;;24.50;43.80;;;;;;5058952;28;20544;-73
2022/07/29 10:35:37;;;;;;;1.70;1.60;;;24.50;43.80;;;;;;5059557;28;20212;-60
2022/07/29 10:38:28;;;;;;;1.77;1.67;;;24.50;43.70;;;;;;5060994;28;20488;-66
2022/07/29 10:41:27;;;;;;;1.90;1.80;;;24.50;43.70;;;;;;5074002;28;20434;-62
2022/07/29 10:44:23;;;;;;;1.63;1.53;;;24.50;43.80;;;;;;5065486;28;21000;-71
2022/07/29 10:46:50;;;;;;;1.57;1.47;;;24.50;43.90;;;;;;5049180;28;20457;-63
2022/07/29 10:49:20;;;;;;;1.93;1.83;;;24.50;43.80;;;;;;5064368;28;20513;-69
2022/07/29 10:52:09;;;;;;;1.77;1.67;;;24.50;43.90;;;;;;5062344;28;20588;-60
2022/07/29 10:54:44;;;;;;;1.70;1.60;;;24.50;43.90;;;;;;5074668;28;20465;-58
2022/07/29 10:57:31;;;;;;;1.53;1.43;;;24.50;43.90;;;;;;5060129;28;20425;-62
2022/07/29 11:00:14;;;;;;;1.60;1.50;;;24.50;43.90;;;;;;5059916;28;20453;-73
2022/07/29 11:02:39;;;;;;;1.80;1.70;;;24.50;43.80;;;;;;5061423;28;22961;-58
2022/07/29 11:05:08;;;;;;;1.73;1.63;;;24.50;43.80;;;;;;5059330;28;20471;-62
2022/07/29 11:07:35;;;;;;;1.70;1.60;;;24.50;43.80;;;;;;5066241;28;20181;-59
2022/07/29 11:10:13;;;;;;;2.00;1.90;;;24.50;44.00;;;;;;5069735;28;20919;-61
2022/07/29 11:12:38;;;;;;;1.70;1.60;;;24.50;43.80;;;;;;5068263;28;20978;-58
2022/07/29 11:15:21;;;;;;;1.80;1.70;;;24.50;43.90;;;;;;5060737;28;20565;-75
2022/07/29 11:18:00;;;;;;;2.30;2.20;;;24.50;43.80;;;;;;5064889;28;20177;-73
2022/07/29 11:20:44;;;;;;;1.90;1.80;;;24.50;43.80;;;;;;5059415;28;20484;-65
2022/07/29 11:23:35;;;;;;;1.93;1.83;;;24.50;43.90;;;;;;5067770;28;20467;-72
2022/07/29 11:26:19;;;;;;;1.80;1.70;;;24.50;43.80;;;;;;5067664;28;20433;-59
2022/07/29 11:29:14;;;;;;;1.80;1.70;;;24.50;43.80;;;;;;5057160;28;20425;-68
2022/07/29 11:31:42;;;;;;;2.90;1.73;;;24.50;43.80;;;;;;5058754;28;20465;-59
2022/07/29 11:34:26;;;;;;;2.37;1.80;;;24.50;43.80;;;;;;5062946;28;20483;-58
2022/07/29 11:37:06;;;;;;;2.47;2.27;;;24.50;43.80;;;;;;5061391;28;20437;-66
2022/07/29 11:39:52;;;;;;;1.53;1.43;;;24.50;43.80;;;;;;5057996;28;20512;-63
2022/07/29 11:42:21;;;;;;;1.73;1.63;;;24.50;43.80;;;;;;5054405;28;20912;-72
2022/07/29 11:45:06;;;;;;;1.67;1.57;;;24.50;43.80;;;;;;5063925;28;20913;-67
2022/07/29 11:47:34;;;;;;;1.83;1.73;;;24.50;43.80;;;;;;5062288;28;20428;-67
2022/07/29 11:50:03;;;;;;;1.93;1.83;;;24.50;43.80;;;;;;5061762;28;20433;-59
2022/07/29 11:52:44;;;;;;;2.00;1.90;;;24.50;43.80;;;;;;5065967;28;20461;-58
2022/07/29 11:55:19;;;;;;;1.87;1.77;;;24.50;43.80;;;;;;5067378;28;21169;-66
2022/07/29 11:58:00;;;;;;;1.80;1.70;;;24.50;43.70;;;;;;5071515;28;20421;-71
2022/07/29 12:00:28;;;;;;;1.77;1.67;;;24.50;43.70;;;;;;5063550;28;20439;-58
2022/07/29 12:02:55;;;;;;;1.90;1.80;;;24.50;43.80;;;;;;5066258;28;20462;-72
2022/07/29 12:05:20;;;;;;;1.83;1.73;;;24.50;43.70;;;;;;5064416;28;20943;-65
2022/07/29 12:07:48;;;;;;;2.33;2.23;;;24.50;43.70;;;;;;5060014;28;20441;-64
2022/07/29 12:10:14;;;;;;;2.13;1.83;;;24.50;43.70;;;;;;5061998;28;20433;-60
2022/07/29 12:12:39;;;;;;;2.20;2.00;;;24.50;43.70;;;;;;5065819;28;20465;-73
2022/07/29 12:15:23;;;;;;;1.83;1.73;;;24.50;43.60;;;;;;5063051;28;20305;-66
2022/07/29 12:17:49;;;;;;;1.80;1.70;;;24.50;43.60;;;;;;5062472;28;20580;-71
2022/07/29 12:20:23;;;;;;;2.20;2.10;;;24.50;43.60;;;;;;5062929;28;20474;-73
2022/07/29 12:22:49;;;;;;;2.00;1.90;;;24.50;43.50;;;;;;5065717;28;20276;-58
2022/07/29 12:25:16;;;;;;;2.10;2.00;;;24.50;43.60;;;;;;5061829;28;20429;-68
2022/07/29 12:27:43;;;;;;;1.70;1.60;;;24.50;43.60;;;;;;5066382;28;20414;-76
2022/07/29 12:30:17;;;;;;;2.13;2.03;;;24.50;43.60;;;;;;5060646;28;20481;-69
2022/07/29 12:32:46;;;;;;;1.87;1.77;;;24.50;43.60;;;;;;5062453;28;20460;-68
2022/07/29 12:35:15;;;;;;;2.17;2.07;;;24.50;43.50;;;;;;5059358;28;20469;-69
2022/07/29 12:37:44;;;;;;;2.00;1.90;;;24.50;43.50;;;;;;5059819;28;20434;-74
2022/07/29 12:40:12;;;;;;;2.00;1.90;;;24.50;43.50;;;;;;5063845;28;20445;-58
2022/07/29 12:42:39;;;;;;;2.70;1.80;;;24.50;43.50;;;;;;5060586;28;20881;-70
2022/07/29 12:45:05;;;;;;;2.17;1.97;;;24.50;44.20;;;;;;5062308;28;20517;-72
2022/07/29 12:47:31;;;;;;;1.93;1.83;;;24.50;43.50;;;;;;5056904;28;20469;-72
2022/07/29 12:50:17;;;;;;;1.90;1.80;;;24.50;43.50;;;;;;5061858;28;20454;-59
2022/07/29 12:52:44;;;;;;;2.10;2.00;;;24.50;43.40;;;;;;5057289;28;20231;-75
2022/07/29 12:55:10;;;;;;;1.90;1.80;;;24.50;43.40;;;;;;5061700;28;20444;-68
2022/07/29 12:57:54;;;;;;;2.03;1.93;;;24.50;43.40;;;;;;5059243;28;20444;-62
2022/07/29 13:00:23;;;;;;;2.30;2.00;;;24.50;43.30;;;;;;5066273;28;20185;-76
2022/07/29 13:02:58;;;;;;;1.90;1.80;;;24.50;43.40;;;;;;5064708;28;20442;-75